sensor_id;sensor_type;location;lat;lon;timestamp;P1;durP1;ratioP1;P2;durP2;ratioP2
15312;SDS011;7757;52.626;4.746;2023-03-23T00:02:23;5.57;;;1.40;;
15312;SDS011;7757;52.626;4.746;2023-03-23T00:05:09;5.90;;;1.58;;
15312;SDS011;7757;52.626;4.746;2023-03-23T00:07:56;5.47;;;1.35;;
15312;SDS011;7757;52.626;4.746;2023-03-23T00:10:47;5.05;;;1.30;;
15312;SDS011;7757;52.626;4.746;2023-03-23T00:13:37;4.43;;;1.25;;
15312;SDS011;7757;52.626;4.746;2023-03-23T00:16:23;4.43;;;1.30;;
15312;SDS011;7757;52.626;4.746;2023-03-23T00:19:13;4.38;;;1.30;;
15312;SDS011;7757;52.626;4.746;2023-03-23T00:22:00;4.22;;;1.40;;
15312;SDS011;7757;52.626;4.746;2023-03-23T00:24:45;3.95;;;1.20;;
15312;SDS011;7757;52.626;4.746;2023-03-23T00:27:33;4.50;;;1.17;;
15312;SDS011;7757;52.626;4.746;2023-03-23T00:30:20;3.45;;;1.17;;
15312;SDS011;7757;52.626;4.746;2023-03-23T00:33:06;3.78;;;1.30;;
15312;SDS011;7757;52.626;4.746;2023-03-23T00:35:51;5.47;;;1.40;;
15312;SDS011;7757;52.626;4.746;2023-03-23T00:38:38;4.78;;;1.42;;
15312;SDS011;7757;52.626;4.746;2023-03-23T00:41:25;4.63;;;1.65;;
15312;SDS011;7757;52.626;4.746;2023-03-23T00:44:11;4.57;;;1.40;;
15312;SDS011;7757;52.626;4.746;2023-03-23T00:47:01;4.38;;;1.27;;
15312;SDS011;7757;52.626;4.746;2023-03-23T00:49:49;5.90;;;1.30;;
15312;SDS011;7757;52.626;4.746;2023-03-23T00:52:36;6.45;;;1.40;;
15312;SDS011;7757;52.626;4.746;2023-03-23T00:55:22;4.78;;;1.30;;
15312;SDS011;7757;52.626;4.746;2023-03-23T00:58:08;4.00;;;1.33;;
15312;SDS011;7757;52.626;4.746;2023-03-23T01:00:54;5.20;;;1.27;;
15312;SDS011;7757;52.626;4.746;2023-03-23T01:03:41;4.43;;;1.20;;
15312;SDS011;7757;52.626;4.746;2023-03-23T01:06:29;3.53;;;1.13;;
15312;SDS011;7757;52.626;4.746;2023-03-23T01:09:15;4.97;;;1.30;;
15312;SDS011;7757;52.626;4.746;2023-03-23T01:12:03;4.80;;;1.35;;
15312;SDS011;7757;52.626;4.746;2023-03-23T01:14:48;3.78;;;1.23;;
15312;SDS011;7757;52.626;4.746;2023-03-23T01:17:34;3.97;;;1.27;;
15312;SDS011;7757;52.626;4.746;2023-03-23T01:20:21;3.20;;;1.20;;
15312;SDS011;7757;52.626;4.746;2023-03-23T01:23:07;4.15;;;1.40;;
15312;SDS011;7757;52.626;4.746;2023-03-23T01:25:53;3.78;;;1.30;;
15312;SDS011;7757;52.626;4.746;2023-03-23T01:28:41;5.65;;;1.40;;
15312;SDS011;7757;52.626;4.746;2023-03-23T01:31:28;5.03;;;1.17;;
15312;SDS011;7757;52.626;4.746;2023-03-23T01:34:13;4.00;;;1.20;;
15312;SDS011;7757;52.626;4.746;2023-03-23T01:37:01;5.05;;;1.30;;
15312;SDS011;7757;52.626;4.746;2023-03-23T01:39:47;5.00;;;1.40;;
15312;SDS011;7757;52.626;4.746;2023-03-23T01:42:35;4.03;;;1.30;;
15312;SDS011;7757;52.626;4.746;2023-03-23T01:45:24;4.63;;;1.38;;
15312;SDS011;7757;52.626;4.746;2023-03-23T01:48:14;3.65;;;1.23;;
15312;SDS011;7757;52.626;4.746;2023-03-23T01:51:04;4.85;;;1.23;;
15312;SDS011;7757;52.626;4.746;2023-03-23T01:53:55;5.47;;;1.27;;
15312;SDS011;7757;52.626;4.746;2023-03-23T01:56:45;4.00;;;1.15;;
15312;SDS011;7757;52.626;4.746;2023-03-23T01:59:35;4.82;;;1.48;;
15312;SDS011;7757;52.626;4.746;2023-03-23T02:02:22;2.55;;;1.20;;
15312;SDS011;7757;52.626;4.746;2023-03-23T02:05:12;4.10;;;1.30;;
15312;SDS011;7757;52.626;4.746;2023-03-23T02:08:02;4.70;;;1.20;;
15312;SDS011;7757;52.626;4.746;2023-03-23T02:10:51;4.57;;;1.20;;
15312;SDS011;7757;52.626;4.746;2023-03-23T02:13:39;2.88;;;1.10;;
15312;SDS011;7757;52.626;4.746;2023-03-23T02:16:30;4.75;;;1.27;;
15312;SDS011;7757;52.626;4.746;2023-03-23T02:19:28;3.58;;;1.10;;
15312;SDS011;7757;52.626;4.746;2023-03-23T02:29:12;4.70;;;1.38;;
15312;SDS011;7757;52.626;4.746;2023-03-23T02:32:31;5.88;;;1.38;;
15312;SDS011;7757;52.626;4.746;2023-03-23T02:35:33;3.60;;;1.20;;
15312;SDS011;7757;52.626;4.746;2023-03-23T02:38:22;4.70;;;1.17;;
15312;SDS011;7757;52.626;4.746;2023-03-23T02:41:15;2.90;;;1.10;;
15312;SDS011;7757;52.626;4.746;2023-03-23T02:44:03;3.55;;;1.10;;
15312;SDS011;7757;52.626;4.746;2023-03-23T02:46:50;3.65;;;1.10;;
15312;SDS011;7757;52.626;4.746;2023-03-23T02:49:39;4.25;;;1.20;;
15312;SDS011;7757;52.626;4.746;2023-03-23T02:52:30;4.20;;;1.30;;
15312;SDS011;7757;52.626;4.746;2023-03-23T02:55:20;5.80;;;1.33;;
15312;SDS011;7757;52.626;4.746;2023-03-23T02:58:08;5.50;;;1.17;;
15312;SDS011;7757;52.626;4.746;2023-03-23T03:00:56;4.00;;;1.15;;
15312;SDS011;7757;52.626;4.746;2023-03-23T03:03:43;4.30;;;1.13;;
15312;SDS011;7757;52.626;4.746;2023-03-23T03:06:31;2.95;;;1.10;;
15312;SDS011;7757;52.626;4.746;2023-03-23T03:09:26;4.60;;;1.20;;
15312;SDS011;7757;52.626;4.746;2023-03-23T03:12:24;3.00;;;1.30;;
15312;SDS011;7757;52.626;4.746;2023-03-23T03:15:19;3.10;;;1.20;;
15312;SDS011;7757;52.626;4.746;2023-03-23T03:18:10;5.05;;;1.30;;
15312;SDS011;7757;52.626;4.746;2023-03-23T03:21:02;4.30;;;1.20;;
15312;SDS011;7757;52.626;4.746;2023-03-23T03:23:54;5.60;;;1.30;;
15312;SDS011;7757;52.626;4.746;2023-03-23T03:26:46;5.32;;;1.20;;
15312;SDS011;7757;52.626;4.746;2023-03-23T03:29:35;4.88;;;1.25;;
15312;SDS011;7757;52.626;4.746;2023-03-23T03:32:25;3.90;;;1.10;;
15312;SDS011;7757;52.626;4.746;2023-03-23T03:35:16;4.80;;;1.23;;
15312;SDS011;7757;52.626;4.746;2023-03-23T03:38:06;3.15;;;1.10;;
15312;SDS011;7757;52.626;4.746;2023-03-23T03:40:54;4.75;;;1.30;;
15312;SDS011;7757;52.626;4.746;2023-03-23T03:43:44;5.65;;;1.30;;
15312;SDS011;7757;52.626;4.746;2023-03-23T03:46:31;5.15;;;1.27;;
15312;SDS011;7757;52.626;4.746;2023-03-23T03:49:19;6.07;;;1.50;;
15312;SDS011;7757;52.626;4.746;2023-03-23T03:52:06;5.20;;;1.50;;
15312;SDS011;7757;52.626;4.746;2023-03-23T03:54:52;4.43;;;1.10;;
15312;SDS011;7757;52.626;4.746;2023-03-23T03:57:45;5.65;;;1.10;;
15312;SDS011;7757;52.626;4.746;2023-03-23T04:00:33;6.18;;;1.30;;
15312;SDS011;7757;52.626;4.746;2023-03-23T04:03:18;3.47;;;1.20;;
15312;SDS011;7757;52.626;4.746;2023-03-23T04:06:03;4.80;;;1.30;;
15312;SDS011;7757;52.626;4.746;2023-03-23T04:08:50;2.95;;;0.98;;
15312;SDS011;7757;52.626;4.746;2023-03-23T04:11:35;4.18;;;1.10;;
15312;SDS011;7757;52.626;4.746;2023-03-23T04:14:24;4.57;;;1.30;;
15312;SDS011;7757;52.626;4.746;2023-03-23T04:17:12;3.83;;;1.10;;
15312;SDS011;7757;52.626;4.746;2023-03-23T04:19:58;3.13;;;1.10;;
15312;SDS011;7757;52.626;4.746;2023-03-23T04:22:51;5.72;;;1.40;;
15312;SDS011;7757;52.626;4.746;2023-03-23T04:25:39;4.40;;;1.60;;
15312;SDS011;7757;52.626;4.746;2023-03-23T04:28:25;3.60;;;1.00;;
15312;SDS011;7757;52.626;4.746;2023-03-23T04:31:13;5.00;;;1.20;;
15312;SDS011;7757;52.626;4.746;2023-03-23T04:34:00;4.45;;;1.30;;
15312;SDS011;7757;52.626;4.746;2023-03-23T04:36:45;3.85;;;1.05;;
15312;SDS011;7757;52.626;4.746;2023-03-23T04:39:31;6.55;;;1.45;;
15312;SDS011;7757;52.626;4.746;2023-03-23T04:42:17;3.35;;;1.10;;
15312;SDS011;7757;52.626;4.746;2023-03-23T04:45:05;5.43;;;1.25;;
15312;SDS011;7757;52.626;4.746;2023-03-23T04:47:53;4.45;;;1.20;;
15312;SDS011;7757;52.626;4.746;2023-03-23T04:50:42;4.32;;;1.30;;
15312;SDS011;7757;52.626;4.746;2023-03-23T04:53:28;3.63;;;1.13;;
15312;SDS011;7757;52.626;4.746;2023-03-23T04:56:15;5.85;;;1.30;;
15312;SDS011;7757;52.626;4.746;2023-03-23T04:59:03;6.45;;;1.30;;
15312;SDS011;7757;52.626;4.746;2023-03-23T05:01:49;5.80;;;1.45;;
15312;SDS011;7757;52.626;4.746;2023-03-23T05:04:35;4.82;;;1.17;;
15312;SDS011;7757;52.626;4.746;2023-03-23T05:07:23;4.22;;;1.00;;
15312;SDS011;7757;52.626;4.746;2023-03-23T05:10:09;4.00;;;1.20;;
15312;SDS011;7757;52.626;4.746;2023-03-23T05:12:55;3.97;;;1.00;;
15312;SDS011;7757;52.626;4.746;2023-03-23T05:15:41;5.45;;;1.10;;
15312;SDS011;7757;52.626;4.746;2023-03-23T05:18:26;7.15;;;1.20;;
15312;SDS011;7757;52.626;4.746;2023-03-23T05:21:13;5.75;;;1.45;;
15312;SDS011;7757;52.626;4.746;2023-03-23T05:24:01;4.60;;;1.30;;
15312;SDS011;7757;52.626;4.746;2023-03-23T05:26:46;4.28;;;1.10;;
15312;SDS011;7757;52.626;4.746;2023-03-23T05:29:32;5.90;;;1.27;;
15312;SDS011;7757;52.626;4.746;2023-03-23T05:32:19;5.35;;;1.20;;
15312;SDS011;7757;52.626;4.746;2023-03-23T05:35:05;4.25;;;1.02;;
15312;SDS011;7757;52.626;4.746;2023-03-23T05:37:52;6.97;;;1.35;;
15312;SDS011;7757;52.626;4.746;2023-03-23T05:40:41;4.78;;;1.10;;
15312;SDS011;7757;52.626;4.746;2023-03-23T05:43:26;3.80;;;1.00;;
15312;SDS011;7757;52.626;4.746;2023-03-23T05:46:13;3.92;;;1.00;;
15312;SDS011;7757;52.626;4.746;2023-03-23T05:49:02;3.10;;;1.00;;
15312;SDS011;7757;52.626;4.746;2023-03-23T05:51:47;4.88;;;1.08;;
15312;SDS011;7757;52.626;4.746;2023-03-23T05:54:33;5.13;;;1.23;;
15312;SDS011;7757;52.626;4.746;2023-03-23T05:57:20;5.22;;;1.30;;
15312;SDS011;7757;52.626;4.746;2023-03-23T06:00:10;6.32;;;1.20;;
15312;SDS011;7757;52.626;4.746;2023-03-23T06:03:03;4.43;;;1.20;;
15312;SDS011;7757;52.626;4.746;2023-03-23T06:05:49;6.65;;;1.48;;
15312;SDS011;7757;52.626;4.746;2023-03-23T06:08:34;5.47;;;1.30;;
15312;SDS011;7757;52.626;4.746;2023-03-23T06:11:20;2.17;;;0.93;;
15312;SDS011;7757;52.626;4.746;2023-03-23T06:14:08;4.53;;;1.20;;
15312;SDS011;7757;52.626;4.746;2023-03-23T06:16:55;5.53;;;1.45;;
15312;SDS011;7757;52.626;4.746;2023-03-23T06:19:40;6.50;;;1.50;;
15312;SDS011;7757;52.626;4.746;2023-03-23T06:22:26;5.22;;;1.17;;
15312;SDS011;7757;52.626;4.746;2023-03-23T06:25:13;5.28;;;1.30;;
15312;SDS011;7757;52.626;4.746;2023-03-23T06:27:59;6.40;;;1.20;;
15312;SDS011;7757;52.626;4.746;2023-03-23T06:30:46;4.40;;;1.08;;
15312;SDS011;7757;52.626;4.746;2023-03-23T06:33:37;5.78;;;1.23;;
15312;SDS011;7757;52.626;4.746;2023-03-23T06:36:24;5.60;;;1.05;;
15312;SDS011;7757;52.626;4.746;2023-03-23T06:39:13;5.10;;;1.30;;
15312;SDS011;7757;52.626;4.746;2023-03-23T06:41:59;3.92;;;1.13;;
15312;SDS011;7757;52.626;4.746;2023-03-23T06:44:45;4.78;;;1.30;;
15312;SDS011;7757;52.626;4.746;2023-03-23T06:47:32;6.05;;;1.15;;
15312;SDS011;7757;52.626;4.746;2023-03-23T06:50:18;4.25;;;0.90;;
15312;SDS011;7757;52.626;4.746;2023-03-23T06:53:04;5.32;;;1.00;;
15312;SDS011;7757;52.626;4.746;2023-03-23T06:55:50;7.07;;;1.30;;
15312;SDS011;7757;52.626;4.746;2023-03-23T06:58:35;5.80;;;1.10;;
15312;SDS011;7757;52.626;4.746;2023-03-23T07:01:21;7.35;;;1.33;;
15312;SDS011;7757;52.626;4.746;2023-03-23T07:04:08;5.10;;;1.10;;
15312;SDS011;7757;52.626;4.746;2023-03-23T07:06:55;4.40;;;1.20;;
15312;SDS011;7757;52.626;4.746;2023-03-23T07:09:40;5.75;;;1.20;;
15312;SDS011;7757;52.626;4.746;2023-03-23T07:12:26;5.80;;;1.20;;
15312;SDS011;7757;52.626;4.746;2023-03-23T07:15:13;4.40;;;1.20;;
15312;SDS011;7757;52.626;4.746;2023-03-23T07:18:00;5.25;;;1.17;;
15312;SDS011;7757;52.626;4.746;2023-03-23T07:20:48;4.55;;;1.27;;
15312;SDS011;7757;52.626;4.746;2023-03-23T07:23:33;6.00;;;1.40;;
15312;SDS011;7757;52.626;4.746;2023-03-23T07:26:19;5.18;;;1.17;;
15312;SDS011;7757;52.626;4.746;2023-03-23T07:29:05;4.65;;;1.10;;
15312;SDS011;7757;52.626;4.746;2023-03-23T07:31:52;5.82;;;1.30;;
15312;SDS011;7757;52.626;4.746;2023-03-23T07:34:38;3.92;;;1.08;;
15312;SDS011;7757;52.626;4.746;2023-03-23T07:37:25;5.40;;;1.45;;
15312;SDS011;7757;52.626;4.746;2023-03-23T07:40:12;6.38;;;1.10;;
15312;SDS011;7757;52.626;4.746;2023-03-23T07:42:59;6.53;;;1.40;;
15312;SDS011;7757;52.626;4.746;2023-03-23T07:45:45;8.65;;;1.80;;
15312;SDS011;7757;52.626;4.746;2023-03-23T07:48:31;14.23;;;2.47;;
15312;SDS011;7757;52.626;4.746;2023-03-23T07:51:17;20.00;;;3.10;;
15312;SDS011;7757;52.626;4.746;2023-03-23T07:54:04;53.10;;;16.02;;
15312;SDS011;7757;52.626;4.746;2023-03-23T07:56:52;32.75;;;9.20;;
15312;SDS011;7757;52.626;4.746;2023-03-23T07:59:37;29.63;;;8.52;;
15312;SDS011;7757;52.626;4.746;2023-03-23T08:02:24;31.23;;;8.20;;
15312;SDS011;7757;52.626;4.746;2023-03-23T08:05:13;42.53;;;10.90;;
15312;SDS011;7757;52.626;4.746;2023-03-23T08:08:00;40.78;;;10.68;;
15312;SDS011;7757;52.626;4.746;2023-03-23T08:10:49;41.85;;;12.20;;
15312;SDS011;7757;52.626;4.746;2023-03-23T08:13:34;44.28;;;13.05;;
15312;SDS011;7757;52.626;4.746;2023-03-23T08:16:20;49.38;;;14.43;;
15312;SDS011;7757;52.626;4.746;2023-03-23T08:19:06;56.22;;;16.42;;
15312;SDS011;7757;52.626;4.746;2023-03-23T08:21:52;51.90;;;15.20;;
15312;SDS011;7757;52.626;4.746;2023-03-23T08:24:38;51.53;;;15.52;;
15312;SDS011;7757;52.626;4.746;2023-03-23T08:27:32;45.88;;;14.15;;
15312;SDS011;7757;52.626;4.746;2023-03-23T08:30:19;50.13;;;15.90;;
15312;SDS011;7757;52.626;4.746;2023-03-23T08:33:07;49.08;;;14.45;;
15312;SDS011;7757;52.626;4.746;2023-03-23T08:35:54;48.60;;;14.30;;
15312;SDS011;7757;52.626;4.746;2023-03-23T08:38:41;46.70;;;13.65;;
15312;SDS011;7757;52.626;4.746;2023-03-23T08:41:28;43.85;;;13.15;;
15312;SDS011;7757;52.626;4.746;2023-03-23T08:44:15;40.75;;;12.18;;
15312;SDS011;7757;52.626;4.746;2023-03-23T08:47:00;38.90;;;11.60;;
15312;SDS011;7757;52.626;4.746;2023-03-23T08:49:48;31.73;;;10.57;;
15312;SDS011;7757;52.626;4.746;2023-03-23T08:52:37;32.30;;;9.63;;
15312;SDS011;7757;52.626;4.746;2023-03-23T08:55:23;32.80;;;10.23;;
15312;SDS011;7757;52.626;4.746;2023-03-23T08:58:12;31.75;;;8.95;;
15312;SDS011;7757;52.626;4.746;2023-03-23T09:01:02;32.63;;;9.25;;
15312;SDS011;7757;52.626;4.746;2023-03-23T09:03:48;29.02;;;8.70;;
15312;SDS011;7757;52.626;4.746;2023-03-23T09:06:34;32.25;;;8.80;;
15312;SDS011;7757;52.626;4.746;2023-03-23T09:09:19;31.00;;;8.82;;
15312;SDS011;7757;52.626;4.746;2023-03-23T09:12:06;30.10;;;8.00;;
15312;SDS011;7757;52.626;4.746;2023-03-23T09:14:52;27.00;;;7.90;;
15312;SDS011;7757;52.626;4.746;2023-03-23T09:17:40;28.17;;;6.38;;
15312;SDS011;7757;52.626;4.746;2023-03-23T09:20:28;24.92;;;6.70;;
15312;SDS011;7757;52.626;4.746;2023-03-23T09:23:14;23.65;;;5.63;;
15312;SDS011;7757;52.626;4.746;2023-03-23T09:26:04;22.55;;;5.32;;
15312;SDS011;7757;52.626;4.746;2023-03-23T09:28:49;27.45;;;5.68;;
15312;SDS011;7757;52.626;4.746;2023-03-23T09:31:35;18.17;;;4.53;;
15312;SDS011;7757;52.626;4.746;2023-03-23T09:34:28;18.33;;;4.10;;
15312;SDS011;7757;52.626;4.746;2023-03-23T09:37:19;20.42;;;4.15;;
15312;SDS011;7757;52.626;4.746;2023-03-23T09:40:05;16.73;;;3.80;;
15312;SDS011;7757;52.626;4.746;2023-03-23T09:43:02;20.27;;;3.85;;
15312;SDS011;7757;52.626;4.746;2023-03-23T09:46:05;19.30;;;3.33;;
15312;SDS011;7757;52.626;4.746;2023-03-23T09:49:07;19.13;;;3.50;;
15312;SDS011;7757;52.626;4.746;2023-03-23T09:51:57;13.82;;;3.22;;
15312;SDS011;7757;52.626;4.746;2023-03-23T09:54:50;18.88;;;3.42;;
15312;SDS011;7757;52.626;4.746;2023-03-23T09:57:40;16.45;;;3.10;;
15312;SDS011;7757;52.626;4.746;2023-03-23T10:00:32;13.00;;;2.65;;
15312;SDS011;7757;52.626;4.746;2023-03-23T10:03:21;17.70;;;3.08;;
15312;SDS011;7757;52.626;4.746;2023-03-23T10:06:12;16.15;;;2.83;;
15312;SDS011;7757;52.626;4.746;2023-03-23T10:09:02;16.17;;;3.38;;
15312;SDS011;7757;52.626;4.746;2023-03-23T10:11:54;13.05;;;2.72;;
15312;SDS011;7757;52.626;4.746;2023-03-23T10:17:59;17.90;;;3.70;;
15312;SDS011;7757;52.626;4.746;2023-03-23T10:20:48;17.38;;;3.33;;
15312;SDS011;7757;52.626;4.746;2023-03-23T10:23:44;16.77;;;3.05;;
15312;SDS011;7757;52.626;4.746;2023-03-23T10:26:42;14.23;;;2.85;;
15312;SDS011;7757;52.626;4.746;2023-03-23T10:29:35;16.70;;;3.13;;
15312;SDS011;7757;52.626;4.746;2023-03-23T10:32:36;17.17;;;3.10;;
15312;SDS011;7757;52.626;4.746;2023-03-23T10:35:28;12.77;;;2.30;;
15312;SDS011;7757;52.626;4.746;2023-03-23T10:38:23;13.35;;;2.65;;
15312;SDS011;7757;52.626;4.746;2023-03-23T10:41:13;15.17;;;2.57;;
15312;SDS011;7757;52.626;4.746;2023-03-23T10:44:04;13.25;;;2.50;;
15312;SDS011;7757;52.626;4.746;2023-03-23T10:46:56;11.52;;;2.60;;
15312;SDS011;7757;52.626;4.746;2023-03-23T10:49:47;14.90;;;2.67;;
15312;SDS011;7757;52.626;4.746;2023-03-23T10:52:35;12.68;;;2.50;;
15312;SDS011;7757;52.626;4.746;2023-03-23T10:55:24;12.90;;;2.85;;
15312;SDS011;7757;52.626;4.746;2023-03-23T10:58:25;12.57;;;2.65;;
15312;SDS011;7757;52.626;4.746;2023-03-23T11:01:17;12.23;;;2.58;;
15312;SDS011;7757;52.626;4.746;2023-03-23T11:04:10;12.30;;;2.20;;
15312;SDS011;7757;52.626;4.746;2023-03-23T11:06:58;12.65;;;2.20;;
15312;SDS011;7757;52.626;4.746;2023-03-23T11:09:51;10.82;;;2.50;;
15312;SDS011;7757;52.626;4.746;2023-03-23T11:12:38;11.43;;;2.00;;
15312;SDS011;7757;52.626;4.746;2023-03-23T11:15:29;13.63;;;2.38;;
15312;SDS011;7757;52.626;4.746;2023-03-23T11:18:20;12.25;;;2.38;;
15312;SDS011;7757;52.626;4.746;2023-03-23T11:21:07;13.23;;;2.30;;
15312;SDS011;7757;52.626;4.746;2023-03-23T11:23:57;12.20;;;2.55;;
15312;SDS011;7757;52.626;4.746;2023-03-23T11:26:46;14.20;;;2.15;;
15312;SDS011;7757;52.626;4.746;2023-03-23T11:29:32;11.68;;;2.35;;
15312;SDS011;7757;52.626;4.746;2023-03-23T11:32:21;13.05;;;2.03;;
15312;SDS011;7757;52.626;4.746;2023-03-23T11:35:15;12.38;;;2.00;;
15312;SDS011;7757;52.626;4.746;2023-03-23T11:38:02;12.85;;;2.30;;
15312;SDS011;7757;52.626;4.746;2023-03-23T11:40:52;13.68;;;2.00;;
15312;SDS011;7757;52.626;4.746;2023-03-23T11:43:39;13.55;;;2.50;;
15312;SDS011;7757;52.626;4.746;2023-03-23T11:46:30;12.65;;;2.13;;
15312;SDS011;7757;52.626;4.746;2023-03-23T11:49:24;12.23;;;1.98;;
15312;SDS011;7757;52.626;4.746;2023-03-23T11:52:23;16.85;;;2.85;;
15312;SDS011;7757;52.626;4.746;2023-03-23T11:55:20;14.07;;;2.08;;
15312;SDS011;7757;52.626;4.746;2023-03-23T11:58:11;11.73;;;2.20;;
15312;SDS011;7757;52.626;4.746;2023-03-23T12:01:00;15.43;;;2.38;;
15312;SDS011;7757;52.626;4.746;2023-03-23T12:03:54;12.23;;;2.13;;
15312;SDS011;7757;52.626;4.746;2023-03-23T12:06:49;10.25;;;1.90;;
15312;SDS011;7757;52.626;4.746;2023-03-23T12:09:47;13.27;;;2.22;;
15312;SDS011;7757;52.626;4.746;2023-03-23T12:12:40;10.80;;;2.00;;
15312;SDS011;7757;52.626;4.746;2023-03-23T12:15:32;12.25;;;2.00;;
15312;SDS011;7757;52.626;4.746;2023-03-23T12:18:24;10.40;;;1.92;;
15312;SDS011;7757;52.626;4.746;2023-03-23T12:21:18;10.68;;;2.00;;
15312;SDS011;7757;52.626;4.746;2023-03-23T12:24:13;11.18;;;2.33;;
15312;SDS011;7757;52.626;4.746;2023-03-23T12:27:12;12.55;;;2.10;;
15312;SDS011;7757;52.626;4.746;2023-03-23T12:33:18;10.57;;;1.95;;
15312;SDS011;7757;52.626;4.746;2023-03-23T12:36:14;10.48;;;2.15;;
15312;SDS011;7757;52.626;4.746;2023-03-23T12:39:25;14.23;;;2.45;;
15312;SDS011;7757;52.626;4.746;2023-03-23T12:42:31;12.85;;;2.00;;
15312;SDS011;7757;52.626;4.746;2023-03-23T12:45:25;13.43;;;2.05;;
15312;SDS011;7757;52.626;4.746;2023-03-23T12:48:33;11.38;;;1.90;;
15312;SDS011;7757;52.626;4.746;2023-03-23T12:51:21;14.27;;;2.20;;
15312;SDS011;7757;52.626;4.746;2023-03-23T12:54:15;11.65;;;2.47;;
15312;SDS011;7757;52.626;4.746;2023-03-23T12:57:14;13.07;;;2.38;;
15312;SDS011;7757;52.626;4.746;2023-03-23T13:00:12;11.85;;;2.38;;
15312;SDS011;7757;52.626;4.746;2023-03-23T13:03:09;11.68;;;1.90;;
15312;SDS011;7757;52.626;4.746;2023-03-23T13:06:04;13.80;;;2.20;;
15312;SDS011;7757;52.626;4.746;2023-03-23T13:08:58;10.73;;;1.85;;
15312;SDS011;7757;52.626;4.746;2023-03-23T13:11:47;11.45;;;2.08;;
15312;SDS011;7757;52.626;4.746;2023-03-23T13:14:37;11.13;;;1.90;;
15312;SDS011;7757;52.626;4.746;2023-03-23T13:17:35;12.52;;;2.50;;
15312;SDS011;7757;52.626;4.746;2023-03-23T13:20:44;9.20;;;1.85;;
15312;SDS011;7757;52.626;4.746;2023-03-23T13:23:41;10.80;;;2.00;;
15312;SDS011;7757;52.626;4.746;2023-03-23T13:26:29;14.15;;;2.30;;
15312;SDS011;7757;52.626;4.746;2023-03-23T13:29:17;14.40;;;2.15;;
15312;SDS011;7757;52.626;4.746;2023-03-23T13:32:05;13.07;;;2.15;;
15312;SDS011;7757;52.626;4.746;2023-03-23T13:34:57;15.63;;;2.35;;
15312;SDS011;7757;52.626;4.746;2023-03-23T13:37:48;17.27;;;2.30;;
15312;SDS011;7757;52.626;4.746;2023-03-23T13:40:36;12.07;;;2.10;;
15312;SDS011;7757;52.626;4.746;2023-03-23T13:43:29;15.77;;;2.42;;
15312;SDS011;7757;52.626;4.746;2023-03-23T13:46:24;16.08;;;2.55;;
15312;SDS011;7757;52.626;4.746;2023-03-23T13:49:18;14.15;;;2.40;;
15312;SDS011;7757;52.626;4.746;2023-03-23T13:52:17;12.77;;;2.15;;
15312;SDS011;7757;52.626;4.746;2023-03-23T13:55:16;12.88;;;2.20;;
15312;SDS011;7757;52.626;4.746;2023-03-23T13:58:21;13.55;;;2.58;;
15312;SDS011;7757;52.626;4.746;2023-03-23T14:01:16;13.93;;;2.35;;
15312;SDS011;7757;52.626;4.746;2023-03-23T14:04:05;11.68;;;1.90;;
15312;SDS011;7757;52.626;4.746;2023-03-23T14:06:52;13.15;;;2.50;;
15312;SDS011;7757;52.626;4.746;2023-03-23T14:09:39;12.90;;;1.95;;
15312;SDS011;7757;52.626;4.746;2023-03-23T14:12:28;15.07;;;2.40;;
15312;SDS011;7757;52.626;4.746;2023-03-23T14:15:16;12.13;;;2.20;;
15312;SDS011;7757;52.626;4.746;2023-03-23T14:18:02;12.90;;;1.88;;
15312;SDS011;7757;52.626;4.746;2023-03-23T14:20:50;13.55;;;2.20;;
15312;SDS011;7757;52.626;4.746;2023-03-23T14:23:36;15.80;;;2.65;;
15312;SDS011;7757;52.626;4.746;2023-03-23T14:26:24;17.55;;;2.88;;
15312;SDS011;7757;52.626;4.746;2023-03-23T14:29:12;13.85;;;3.05;;
15312;SDS011;7757;52.626;4.746;2023-03-23T14:31:58;14.48;;;2.80;;
15312;SDS011;7757;52.626;4.746;2023-03-23T14:34:47;18.40;;;2.70;;
15312;SDS011;7757;52.626;4.746;2023-03-23T14:37:34;12.93;;;2.38;;
15312;SDS011;7757;52.626;4.746;2023-03-23T14:40:20;16.67;;;2.50;;
15312;SDS011;7757;52.626;4.746;2023-03-23T14:43:13;13.18;;;2.30;;
15312;SDS011;7757;52.626;4.746;2023-03-23T14:46:05;16.05;;;2.40;;
15312;SDS011;7757;52.626;4.746;2023-03-23T14:48:55;12.95;;;2.03;;
15312;SDS011;7757;52.626;4.746;2023-03-23T14:51:46;13.90;;;2.33;;
15312;SDS011;7757;52.626;4.746;2023-03-23T14:54:33;14.15;;;2.25;;
15312;SDS011;7757;52.626;4.746;2023-03-23T14:57:25;13.52;;;2.30;;
15312;SDS011;7757;52.626;4.746;2023-03-23T15:00:20;15.30;;;2.17;;
15312;SDS011;7757;52.626;4.746;2023-03-23T15:03:10;19.20;;;2.53;;
15312;SDS011;7757;52.626;4.746;2023-03-23T15:05:59;16.35;;;2.25;;
15312;SDS011;7757;52.626;4.746;2023-03-23T15:08:49;15.85;;;2.25;;
15312;SDS011;7757;52.626;4.746;2023-03-23T15:11:39;16.52;;;2.45;;
15312;SDS011;7757;52.626;4.746;2023-03-23T15:14:27;13.38;;;2.60;;
15312;SDS011;7757;52.626;4.746;2023-03-23T15:17:19;12.73;;;2.22;;
15312;SDS011;7757;52.626;4.746;2023-03-23T15:20:07;19.27;;;2.60;;
15312;SDS011;7757;52.626;4.746;2023-03-23T15:22:55;15.23;;;2.50;;
15312;SDS011;7757;52.626;4.746;2023-03-23T15:25:47;15.38;;;2.30;;
15312;SDS011;7757;52.626;4.746;2023-03-23T15:28:33;11.88;;;2.22;;
15312;SDS011;7757;52.626;4.746;2023-03-23T15:31:25;14.18;;;2.20;;
15312;SDS011;7757;52.626;4.746;2023-03-23T15:34:15;17.60;;;2.83;;
15312;SDS011;7757;52.626;4.746;2023-03-23T15:37:17;11.18;;;1.98;;
15312;SDS011;7757;52.626;4.746;2023-03-23T15:40:05;18.65;;;2.83;;
15312;SDS011;7757;52.626;4.746;2023-03-23T15:43:14;11.75;;;2.17;;
15312;SDS011;7757;52.626;4.746;2023-03-23T15:46:03;14.00;;;2.05;;
15312;SDS011;7757;52.626;4.746;2023-03-23T15:48:51;18.05;;;2.75;;
15312;SDS011;7757;52.626;4.746;2023-03-23T15:51:40;13.20;;;2.10;;
15312;SDS011;7757;52.626;4.746;2023-03-23T15:54:28;11.52;;;2.10;;
15312;SDS011;7757;52.626;4.746;2023-03-23T15:57:15;13.32;;;2.05;;
15312;SDS011;7757;52.626;4.746;2023-03-23T16:00:01;13.15;;;2.03;;
15312;SDS011;7757;52.626;4.746;2023-03-23T16:02:47;13.68;;;2.30;;
15312;SDS011;7757;52.626;4.746;2023-03-23T16:05:36;14.10;;;2.03;;
15312;SDS011;7757;52.626;4.746;2023-03-23T16:08:26;12.00;;;2.35;;
15312;SDS011;7757;52.626;4.746;2023-03-23T16:11:16;11.75;;;2.08;;
15312;SDS011;7757;52.626;4.746;2023-03-23T16:14:02;14.70;;;2.47;;
15312;SDS011;7757;52.626;4.746;2023-03-23T16:16:48;12.85;;;2.30;;
15312;SDS011;7757;52.626;4.746;2023-03-23T16:19:36;11.60;;;1.75;;
15312;SDS011;7757;52.626;4.746;2023-03-23T16:22:22;13.40;;;2.78;;
15312;SDS011;7757;52.626;4.746;2023-03-23T16:25:10;15.25;;;2.30;;
15312;SDS011;7757;52.626;4.746;2023-03-23T16:27:56;13.18;;;2.17;;
15312;SDS011;7757;52.626;4.746;2023-03-23T16:30:42;13.63;;;2.35;;
15312;SDS011;7757;52.626;4.746;2023-03-23T16:33:30;11.85;;;2.17;;
15312;SDS011;7757;52.626;4.746;2023-03-23T16:36:17;13.20;;;2.47;;
15312;SDS011;7757;52.626;4.746;2023-03-23T16:39:05;12.07;;;2.08;;
15312;SDS011;7757;52.626;4.746;2023-03-23T16:41:53;11.48;;;2.13;;
15312;SDS011;7757;52.626;4.746;2023-03-23T16:44:38;12.50;;;2.10;;
15312;SDS011;7757;52.626;4.746;2023-03-23T16:47:24;13.23;;;2.38;;
15312;SDS011;7757;52.626;4.746;2023-03-23T16:50:10;15.07;;;2.10;;
15312;SDS011;7757;52.626;4.746;2023-03-23T16:52:58;13.73;;;2.70;;
15312;SDS011;7757;52.626;4.746;2023-03-23T16:55:43;13.35;;;2.03;;
15312;SDS011;7757;52.626;4.746;2023-03-23T16:58:35;12.85;;;2.25;;
15312;SDS011;7757;52.626;4.746;2023-03-23T17:01:21;15.07;;;2.42;;
15312;SDS011;7757;52.626;4.746;2023-03-23T17:04:07;15.20;;;2.90;;
15312;SDS011;7757;52.626;4.746;2023-03-23T17:06:54;11.88;;;2.92;;
15312;SDS011;7757;52.626;4.746;2023-03-23T17:09:41;15.23;;;3.47;;
15312;SDS011;7757;52.626;4.746;2023-03-23T17:12:27;15.73;;;3.92;;
15312;SDS011;7757;52.626;4.746;2023-03-23T17:15:17;18.85;;;4.50;;
15312;SDS011;7757;52.626;4.746;2023-03-23T17:18:02;22.73;;;5.68;;
15312;SDS011;7757;52.626;4.746;2023-03-23T17:20:48;21.05;;;5.20;;